Time;durP1;ratioP1;P1;durP2;ratioP2;P2;SDS_P1;SDS_P2;PMS_P1;PMS_P2;Temp;Humidity;BMP_temperature;BMP_pressure;BME280_temperature;BME280_humidity;BME280_pressure;Samples;Min_cycle;Max_cycle;Signal;HPM_P1;HPM_P2
2023/07/06 18:00:04;;;;;;;3.40;1.65;;;;;;;18.65;69.73;101144.44;2100335;28;20485;-72
2023/07/06 18:01:59;;;;;;;5.65;1.75;;;;;;;18.68;69.45;101147.34;2129451;27;20192;-72
2023/07/06 18:03:05;;;;;;;5.88;2.20;;;;;;;18.67;69.66;101148.47;2125354;27;20035;-72
2023/07/06 18:04:09;;;;;;;3.85;1.50;;;;;;;18.67;70.08;101145.75;2124739;27;20062;-71
2023/07/06 18:05:13;;;;;;;4.63;1.88;;;;;;;18.67;70.15;101147.66;2114350;27;20024;-72
2023/07/06 18:06:16;;;;;;;4.18;2.00;;;;;;;18.69;70.54;101140.75;2110770;27;20056;-73
2023/07/06 18:07:18;;;;;;;3.28;1.70;;;;;;;18.75;70.73;101142.22;2100767;28;20997;-73
2023/07/06 18:08:22;;;;;;;3.72;2.42;;;;;;;18.78;70.51;101145.44;2078380;28;20049;-71
2023/07/06 18:09:27;;;;;;;2.85;1.90;;;;;;;18.81;70.26;101153.78;2101198;27;20859;-78
2023/07/06 18:10:30;;;;;;;3.30;1.60;;;;;;;18.82;69.95;101144.50;2118675;27;20024;-76
2023/07/06 18:11:32;;;;;;;6.28;1.80;;;;;;;18.82;69.83;101144.50;2100876;28;20525;-77
2023/07/06 18:12:33;;;;;;;2.25;1.75;;;;;;;18.83;69.78;101145.31;2096636;28;20029;-75
2023/07/06 18:13:37;;;;;;;5.20;2.03;;;;;;;18.83;69.63;101150.75;2097215;28;20040;-77
2023/07/06 18:14:39;;;;;;;4.05;1.63;;;;;;;18.83;69.57;101157.00;2094554;28;20902;-75
2023/07/06 18:15:44;;;;;;;6.63;1.90;;;;;;;18.82;69.53;101149.97;2105542;27;20028;-75
2023/07/06 18:16:45;;;;;;;5.13;2.00;;;;;;;18.83;69.46;101151.56;2090835;28;21443;-71
2023/07/06 18:17:49;;;;;;;4.93;1.95;;;;;;;18.81;69.46;101152.97;2084951;28;20892;-71
2023/07/06 18:18:51;;;;;;;4.28;2.10;;;;;;;18.81;69.63;101159.22;2085864;28;20192;-71
2023/07/06 18:19:52;;;;;;;3.58;2.00;;;;;;;18.81;69.66;101163.88;2085835;28;20044;-71
2023/07/06 18:20:55;;;;;;;7.85;2.50;;;;;;;18.74;69.80;101165.16;2094163;28;20935;-72
2023/07/06 18:22:01;;;;;;;7.20;2.13;;;;;;;18.74;69.96;101158.91;2111621;27;20672;-71
2023/07/06 18:23:07;;;;;;;4.72;1.90;;;;;;;18.77;70.25;101152.03;2105052;27;20056;-72
2023/07/06 18:24:12;;;;;;;4.80;1.98;;;;;;;18.81;70.15;101166.59;2099533;28;20361;-71
2023/07/06 18:25:13;;;;;;;3.42;2.13;;;;;;;18.83;70.11;101154.28;2089789;28;20080;-71
2023/07/06 18:26:14;;;;;;;5.32;2.10;;;;;;;18.81;70.08;101158.44;2091429;28;20151;-71
2023/07/06 18:27:16;;;;;;;5.80;1.90;;;;;;;18.77;70.17;101158.28;2097506;27;21567;-72
2023/07/06 18:28:18;;;;;;;5.32;2.00;;;;;;;18.80;70.20;101163.09;2092579;28;20160;-71
2023/07/06 18:29:23;;;;;;;3.90;1.80;;;;;;;18.81;70.15;101159.22;2095298;28;20021;-71
2023/07/06 18:30:27;;;;;;;6.40;2.00;;;;;;;18.80;70.15;101167.75;2114127;27;20080;-72
2023/07/06 18:31:33;;;;;;;4.30;2.10;;;;;;;18.80;70.02;101167.75;2108861;27;20950;-74
2023/07/06 18:32:38;;;;;;;2.92;1.83;;;;;;;18.77;70.35;101169.16;2112976;27;20135;-73
2023/07/06 18:33:40;;;;;;;5.72;1.92;;;;;;;18.77;69.98;101165.66;2118884;27;20978;-72
2023/07/06 18:34:42;;;;;;;4.05;1.70;;;;;;;18.75;69.94;101166.75;2103990;28;21080;-73
2023/07/06 18:35:50;;;;;;;5.03;1.90;;;;;;;18.74;70.16;101173.31;2091012;28;21204;-71
2023/07/06 18:36:52;;;;;;;4.20;1.73;;;;;;;18.70;70.00;101166.91;2102892;27;20071;-71
2023/07/06 18:37:54;;;;;;;3.13;1.55;;;;;;;18.74;69.97;101167.09;2105581;28;20119;-71
2023/07/06 18:38:56;;;;;;;2.70;1.70;;;;;;;18.72;69.71;101172.00;2097906;28;20761;-71
2023/07/06 18:39:58;;;;;;;3.75;1.60;;;;;;;18.67;69.40;101174.91;2106396;28;20893;-72
2023/07/06 18:41:02;;;;;;;3.92;1.52;;;;;;;18.67;69.71;101169.44;2103804;28;20067;-72
2023/07/06 18:42:05;;;;;;;3.17;2.00;;;;;;;18.69;69.77;101170.72;2098612;27;20770;-72
2023/07/06 18:43:09;;;;;;;5.68;1.90;;;;;;;18.72;69.67;101174.72;2106483;27;20139;-71
2023/07/06 18:44:11;;;;;;;2.53;1.65;;;;;;;18.76;69.69;101173.03;2098426;28;20037;-72
2023/07/06 18:45:24;;;;;;;9.80;2.22;;;;;;;18.77;69.51;101174.63;1894962;28;10000856;-71
2023/07/06 18:46:26;;;;;;;5.40;1.73;;;;;;;18.78;69.68;101176.22;1548208;28;10000284;-72
2023/07/06 18:47:32;;;;;;;3.70;1.50;;;;;;;18.79;69.97;101183.28;2057766;28;20129;-72
2023/07/06 18:48:38;;;;;;;4.18;1.67;;;;;;;18.81;70.16;101180.22;2059616;28;20050;-72
2023/07/06 18:49:46;;;;;;;3.42;2.10;;;;;;;18.83;70.61;101183.44;1755851;28;10001284;-72
2023/07/06 18:50:50;;;;;;;4.68;1.95;;;;;;;18.78;71.25;101183.59;1529429;28;10012502;-72
2023/07/06 18:51:53;;;;;;;7.00;2.22;;;;;;;18.71;71.05;101184.84;2037020;28;20972;-73
2023/07/06 18:52:59;;;;;;;4.38;2.53;;;;;;;18.70;71.18;101193.34;2058558;28;20043;-72
2023/07/06 18:54:05;;;;;;;6.28;2.10;;;;;;;18.74;71.07;101184.22;2050976;28;20040;-70
2023/07/06 18:55:10;;;;;;;5.70;2.00;;;;;;;18.75;70.47;101204.88;2024535;28;20056;-71
2023/07/06 18:56:13;;;;;;;3.17;1.85;;;;;;;18.74;70.05;101192.41;2036957;28;20090;-71
2023/07/06 18:57:18;;;;;;;4.88;1.98;;;;;;;18.73;69.74;101190.81;2030178;29;20037;-70
2023/07/06 18:58:21;;;;;;;5.88;2.00;;;;;;;18.74;69.79;101189.69;2035630;28;20040;-72
2023/07/06 18:59:23;;;;;;;7.53;1.88;;;;;;;18.72;69.19;101191.91;2045876;28;20048;-71
2023/07/06 19:00:26;;;;;;;6.63;3.80;;;;;;;18.72;69.43;101194.63;2025228;29;20145;-71
2023/07/06 19:01:27;;;;;;;6.03;2.88;;;;;;;18.73;69.97;101190.00;2028935;28;20053;-71
2023/07/06 19:02:29;;;;;;;7.43;2.28;;;;;;;18.73;70.01;101200.91;2052588;28;20093;-72
2023/07/06 19:03:31;;;;;;;5.18;2.10;;;;;;;18.72;69.76;101199.25;2036783;28;20120;-71
2023/07/06 19:04:40;;;;;;;5.45;2.10;;;;;;;18.73;69.27;101195.47;2031816;28;20163;-71
2023/07/06 19:05:43;;;;;;;5.10;1.85;;;;;;;18.73;69.21;101195.47;2047380;28;20051;-71
2023/07/06 19:06:45;;;;;;;4.30;1.90;;;;;;;18.81;69.34;101196.56;2040863;28;20079;-73
2023/07/06 19:07:49;;;;;;;4.40;1.90;;;;;;;18.86;69.32;101191.00;2042948;28;20048;-73
2023/07/06 19:08:54;;;;;;;8.90;1.98;;;;;;;18.91;69.42;101193.53;2051487;28;20074;-75
2023/07/06 19:09:56;;;;;;;3.53;1.90;;;;;;;18.97;69.35;101195.00;2035424;28;20087;-75
2023/07/06 19:11:04;;;;;;;3.08;1.85;;;;;;;18.98;68.88;101204.78;2037641;28;20048;-75
2023/07/06 19:12:06;;;;;;;7.88;2.05;;;;;;;18.97;68.54;101200.44;2039398;28;20043;-72
2023/07/06 19:13:11;;;;;;;4.05;2.55;;;;;;;18.97;68.42;101203.16;2038882;28;20900;-70
2023/07/06 19:14:21;;;;;;;3.53;1.60;;;;;;;18.91;67.58;101199.78;2031688;29;20037;-72
2023/07/06 19:15:23;;;;;;;4.85;1.83;;;;;;;18.92;67.75;101204.13;2040131;28;20099;-71
2023/07/06 19:16:24;;;;;;;4.30;1.55;;;;;;;18.90;66.76;101203.63;2045825;28;20061;-71
2023/07/06 19:17:25;;;;;;;5.75;1.48;;;;;;;18.91;66.41;101207.16;2039561;28;20044;-72
2023/07/06 19:18:31;;;;;;;4.50;2.22;;;;;;;18.94;66.14;101203.81;2036733;28;20147;-71
2023/07/06 19:19:32;;;;;;;17.77;8.93;;;;;;;18.94;66.24;101207.31;2047792;28;20855;-72
2023/07/06 19:20:33;;;;;;;14.70;7.25;;;;;;;18.94;67.17;101206.53;2046820;28;20032;-72
2023/07/06 19:21:36;;;;;;;9.00;4.15;;;;;;;18.96;67.85;101198.84;2046985;28;20044;-72
2023/07/06 19:22:57;;;;;;;4.65;2.75;;;;;;;18.99;68.48;101206.38;2052587;28;20035;-72
2023/07/06 19:24:00;;;;;;;7.80;2.15;;;;;;;19.02;68.35;101211.19;2062945;28;20047;-71
2023/07/06 19:25:01;;;;;;;3.70;1.80;;;;;;;19.03;67.82;101212.00;2058686;28;20170;-71
2023/07/06 19:26:03;;;;;;;6.22;2.10;;;;;;;18.95;66.35;101210.88;2031303;28;20040;-70
2023/07/06 19:27:08;;;;;;;4.38;1.70;;;;;;;18.96;66.37;101212.47;2055349;28;20160;-72
2023/07/06 19:28:10;;;;;;;5.25;1.90;;;;;;;18.96;66.15;101215.19;2063172;28;20056;-72
2023/07/06 19:29:12;;;;;;;4.38;1.90;;;;;;;18.98;66.01;101207.50;2048044;28;20757;-71
2023/07/06 19:30:13;;;;;;;4.18;1.80;;;;;;;19.02;65.97;101216.66;2048266;28;20762;-72
2023/07/06 19:31:20;;;;;;;8.55;1.98;;;;;;;19.02;66.12;101219.38;2060655;28;20034;-71
2023/07/06 19:32:22;;;;;;;5.72;2.05;;;;;;;19.04;66.22;101217.13;2055992;28;20035;-73
2023/07/06 19:33:24;;;;;;;6.15;2.05;;;;;;;19.04;66.55;101216.31;2062481;28;20034;-74
2023/07/06 19:34:31;;;;;;;6.25;1.75;;;;;;;19.05;66.87;101218.72;2059634;28;21316;-71
2023/07/06 19:35:34;;;;;;;4.03;2.10;;;;;;;19.03;66.84;101223.69;2057642;28;20237;-71
2023/07/06 19:36:36;;;;;;;8.85;2.10;;;;;;;19.04;66.80;101214.41;2052970;28;20040;-71
2023/07/06 19:37:41;;;;;;;5.82;2.50;;;;;;;19.05;66.68;101223.38;2062409;28;20106;-72
2023/07/06 19:38:43;;;;;;;5.00;2.33;;;;;;;19.02;66.57;101213.91;2077659;28;20041;-71
2023/07/06 19:39:45;;;;;;;3.05;2.10;;;;;;;18.98;66.46;101216.47;2061586;28;20043;-72
2023/07/06 19:40:52;;;;;;;5.47;2.45;;;;;;;18.97;66.51;101222.25;2050802;28;20050;-72
2023/07/06 19:41:54;;;;;;;6.20;2.50;;;;;;;18.93;66.93;101224.00;2063540;28;20043;-72
2023/07/06 19:42:58;;;;;;;5.07;2.30;;;;;;;18.92;67.49;101233.31;2063861;28;20034;-72
2023/07/06 19:44:00;;;;;;;5.45;2.25;;;;;;;18.92;67.78;101225.13;2050538;28;20082;-71
2023/07/06 19:45:07;;;;;;;6.65;2.13;;;;;;;18.92;67.98;101230.59;2052919;28;20045;-72
2023/07/06 19:46:09;;;;;;;8.63;2.50;;;;;;;18.93;67.91;101227.53;2048950;28;20043;-75
2023/07/06 19:47:12;;;;;;;9.77;2.35;;;;;;;18.96;67.50;101237.78;2062627;28;21516;-72
2023/07/06 19:48:16;;;;;;;8.57;2.88;;;;;;;19.01;67.28;101227.84;2052078;28;20039;-74
2023/07/06 19:49:18;;;;;;;4.78;2.50;;;;;;;19.02;67.22;101235.72;2048460;28;21362;-72
2023/07/06 19:50:22;;;;;;;7.80;2.70;;;;;;;19.07;67.14;101232.81;2066071;28;20050;-74
2023/07/06 19:51:24;;;;;;;7.13;2.63;;;;;;;19.11;67.25;101233.81;2074029;28;20144;-72
2023/07/06 19:52:33;;;;;;;5.80;2.38;;;;;;;19.14;67.09;101238.63;2092354;28;20040;-73
2023/07/06 19:53:37;;;;;;;6.85;2.30;;;;;;;19.16;67.23;101235.56;2096452;28;20029;-74
2023/07/06 19:54:39;;;;;;;5.15;2.63;;;;;;;19.13;67.55;101233.47;2087405;28;20048;-74
2023/07/06 19:55:42;;;;;;;8.23;2.42;;;;;;;19.13;67.66;101234.28;2057934;28;21667;-72
2023/07/06 19:56:44;;;;;;;6.50;2.42;;;;;;;19.12;67.75;101240.84;2071497;28;20027;-72
2023/07/06 19:57:48;;;;;;;5.65;2.78;;;;;;;19.05;67.88;101234.28;2070669;28;20026;-74
2023/07/06 19:58:50;;;;;;;7.43;2.60;;;;;;;18.97;68.15;101217.59;2067082;28;20031;-73
2023/07/06 19:59:51;;;;;;;7.28;2.83;;;;;;;18.91;68.48;101234.41;2079859;28;20033;-74
2023/07/06 20:00:57;;;;;;;7.70;3.28;;;;;;;18.83;69.04;101235.22;2075184;28;20148;-73
2023/07/06 20:01:59;;;;;;;8.80;3.15;;;;;;;18.77;69.17;101231.84;2088599;28;20092;-73
2023/07/06 20:03:09;;;;;;;6.75;2.70;;;;;;;18.73;69.44;101228.94;2095450;28;20037;-72
2023/07/06 20:04:12;;;;;;;7.22;3.13;;;;;;;18.68;69.57;101225.53;2087754;28;20159;-73
2023/07/06 20:05:17;;;;;;;8.60;3.10;;;;;;;18.65;69.91;101224.22;2089664;28;20033;-72
2023/07/06 20:06:24;;;;;;;6.78;2.65;;;;;;;18.64;70.20;101240.91;2094533;28;20834;-72
2023/07/06 20:07:31;;;;;;;9.05;2.90;;;;;;;18.62;70.43;101221.34;2066369;28;20039;-72
2023/07/06 20:08:33;;;;;;;6.18;2.97;;;;;;;18.61;70.61;101228.72;2065009;28;20155;-72
2023/07/06 20:09:35;;;;;;;5.65;2.70;;;;;;;18.63;70.81;101229.22;2079658;28;20041;-72
2023/07/06 20:10:37;;;;;;;10.38;3.35;;;;;;;18.68;70.96;101231.78;2088672;28;20987;-73
2023/07/06 20:11:42;;;;;;;8.57;3.28;;;;;;;18.71;71.01;101228.41;2072465;28;20086;-73
2023/07/06 20:12:43;;;;;;;8.07;2.88;;;;;;;18.75;71.12;101239.50;2072827;28;20825;-73
2023/07/06 20:13:45;;;;;;;9.93;3.40;;;;;;;18.75;71.13;101237.56;2080223;28;21381;-73
2023/07/06 20:14:51;;;;;;;8.07;3.20;;;;;;;18.78;70.77;101243.53;2087435;28;21463;-72
2023/07/06 20:16:15;;;;;;;5.68;3.28;;;;;;;18.78;70.63;101236.16;2079232;28;20038;-72
2023/07/06 20:17:17;;;;;;;10.18;3.30;;;;;;;18.81;70.42;101235.50;2076957;28;20048;-72
2023/07/06 20:18:19;;;;;;;8.57;3.15;;;;;;;18.86;70.17;101231.84;2087374;28;20036;-72
2023/07/06 20:19:24;;;;;;;5.28;2.83;;;;;;;18.90;69.75;101235.53;2084799;28;20044;-73
2023/07/06 20:20:32;;;;;;;8.70;4.78;;;;;;;18.93;69.43;101237.63;2078591;28;20069;-73
2023/07/06 20:21:36;;;;;;;16.58;7.93;;;;;;;18.94;69.49;101233.78;2090264;28;20875;-73
2023/07/06 20:22:38;;;;;;;17.52;9.98;;;;;;;18.91;69.70;101237.13;2074730;28;20130;-73
2023/07/06 20:23:39;;;;;;;14.30;7.57;;;;;;;18.88;69.73;101230.38;2082725;28;20927;-73
2023/07/06 20:24:42;;;;;;;7.55;4.47;;;;;;;18.86;69.81;101237.31;2097736;28;20074;-73
2023/07/06 20:25:49;;;;;;;12.93;4.32;;;;;;;18.81;69.94;101235.50;2068830;28;20044;-72
2023/07/06 20:26:51;;;;;;;12.90;4.57;;;;;;;18.81;70.24;101240.16;2093983;28;20038;-73
2023/07/06 20:27:55;;;;;;;7.60;3.65;;;;;;;18.78;70.39;101248.97;2100594;28;20028;-73
2023/07/06 20:28:56;;;;;;;7.38;3.63;;;;;;;18.80;70.61;101244.03;2097508;28;20265;-73
2023/07/06 20:30:00;;;;;;;8.73;3.78;;;;;;;18.78;70.73;101247.03;2085192;28;20865;-72
2023/07/06 20:31:04;;;;;;;11.52;3.15;;;;;;;18.81;70.85;101245.63;2072809;28;20972;-72
2023/07/06 20:32:10;;;;;;;7.25;3.30;;;;;;;18.82;70.86;101244.47;2076684;28;20071;-72
2023/07/06 20:33:16;;;;;;;8.45;3.05;;;;;;;18.86;70.60;101253.66;2080663;28;20132;-71
2023/07/06 20:34:20;;;;;;;10.88;3.80;;;;;;;18.86;70.78;101242.75;2082690;28;20034;-72
2023/07/06 20:35:24;;;;;;;6.10;3.22;;;;;;;18.85;70.74;101243.84;2078173;28;20040;-72
2023/07/06 20:36:28;;;;;;;9.27;3.15;;;;;;;18.85;70.70;101249.31;2086436;28;20034;-72
2023/07/06 20:37:29;;;;;;;7.95;3.63;;;;;;;18.83;70.75;101254.28;2072782;28;20050;-72
2023/07/06 20:38:33;;;;;;;7.85;3.55;;;;;;;18.80;71.09;101249.47;2088048;28;20041;-71
2023/07/06 20:39:36;;;;;;;7.03;3.30;;;;;;;18.76;71.15;101271.09;2079891;28;20032;-71
2023/07/06 20:40:37;;;;;;;6.88;2.90;;;;;;;18.72;71.39;101253.72;2066246;28;20035;-71
2023/07/06 20:41:39;;;;;;;7.93;2.88;;;;;;;18.72;71.29;101254.56;2079559;28;20848;-71
2023/07/06 20:42:43;;;;;;;5.78;3.20;;;;;;;18.73;71.32;101274.47;2080215;28;20056;-72
2023/07/06 20:43:45;;;;;;;7.07;2.80;;;;;;;18.74;71.51;101262.44;2080199;28;20963;-71
2023/07/06 20:44:47;;;;;;;6.95;3.15;;;;;;;18.74;71.42;101262.44;2090349;28;20918;-70
2023/07/06 20:45:53;;;;;;;5.00;2.92;;;;;;;18.79;71.19;101264.19;2080849;28;20038;-72
2023/07/06 20:46:57;;;;;;;7.15;2.70;;;;;;;18.80;71.08;101276.72;2081570;28;20037;-73
2023/07/06 20:47:58;;;;;;;6.63;2.80;;;;;;;18.82;70.87;101267.09;2075329;28;20042;-71
2023/07/06 20:49:01;;;;;;;7.45;2.83;;;;;;;18.78;70.80;101266.13;2069637;28;20202;-73
2023/07/06 20:50:03;;;;;;;8.32;2.92;;;;;;;18.71;71.25;101273.94;2089712;28;20861;-73
2023/07/06 20:51:05;;;;;;;7.47;2.72;;;;;;;18.66;71.48;101266.72;2091953;28;20029;-73
2023/07/06 20:52:07;;;;;;;6.97;3.00;;;;;;;18.63;71.65;101267.34;2086843;28;20072;-73
2023/07/06 20:53:09;;;;;;;6.18;3.13;;;;;;;18.59;71.88;101266.34;2082669;28;20045;-73
2023/07/06 20:54:12;;;;;;;7.95;2.80;;;;;;;18.58;72.03;101274.84;2086868;28;21495;-73
2023/07/06 20:55:14;;;;;;;7.45;2.65;;;;;;;18.56;72.29;101272.41;2090981;28;20040;-71
2023/07/06 20:56:21;;;;;;;6.50;3.20;;;;;;;18.59;72.26;101271.78;2078488;28;20584;-72
2023/07/06 20:57:23;;;;;;;4.85;2.75;;;;;;;18.59;72.32;101271.78;2079903;28;20062;-76
2023/07/06 20:58:25;;;;;;;5.88;2.92;;;;;;;18.60;72.25;101275.31;2085947;28;20161;-72
2023/07/06 20:59:29;;;;;;;6.35;3.15;;;;;;;18.62;72.13;101271.16;2088397;28;20037;-72
2023/07/06 21:00:34;;;;;;;6.43;2.90;;;;;;;18.62;72.09;101275.81;2072699;28;20042;-71
2023/07/06 21:01:40;;;;;;;8.65;3.10;;;;;;;18.63;72.08;101272.78;2082354;28;20050;-71
2023/07/06 21:02:42;;;;;;;6.28;2.75;;;;;;;18.60;72.14;101272.59;2088082;28;20044;-72
2023/07/06 21:03:44;;;;;;;5.30;3.10;;;;;;;18.59;72.10;101271.00;2087953;28;20247;-72
2023/07/06 21:04:46;;;;;;;6.68;2.90;;;;;;;18.54;72.15;101274.69;2073472;28;20036;-72
2023/07/06 21:05:50;;;;;;;6.25;3.25;;;;;;;18.53;72.26;101278.50;2071360;28;20069;-71
2023/07/06 21:06:52;;;;;;;7.88;3.33;;;;;;;18.54;72.51;101282.84;2088432;28;20033;-71
2023/07/06 21:07:59;;;;;;;8.57;3.05;;;;;;;18.55;72.41;101281.72;2090628;28;20129;-71
2023/07/06 21:09:01;;;;;;;8.30;3.10;;;;;;;18.52;72.42;101279.63;2087323;28;20037;-71
2023/07/06 21:10:09;;;;;;;6.32;3.10;;;;;;;18.49;72.31;101282.97;2072309;28;20031;-71
2023/07/06 21:11:12;;;;;;;4.85;2.80;;;;;;;18.50;72.44;101284.56;2079984;28;20034;-73
2023/07/06 21:12:16;;;;;;;6.50;3.30;;;;;;;18.50;72.31;101279.94;2081206;28;21400;-72
2023/07/06 21:13:21;;;;;;;5.88;2.95;;;;;;;18.49;72.22;101285.69;2069198;28;21203;-72
2023/07/06 21:14:27;;;;;;;7.82;3.10;;;;;;;18.49;72.31;101282.97;2081263;28;20742;-72
2023/07/06 21:15:28;;;;;;;7.95;3.28;;;;;;;18.51;72.28;101278.81;2072155;28;20877;-72
2023/07/06 21:16:43;;;;;;;6.00;3.08;;;;;;;18.49;72.35;101280.25;2072680;28;20879;-73
2023/07/06 21:17:48;;;;;;;6.60;3.10;;;;;;;18.45;72.49;101288.25;2076533;28;20033;-73
2023/07/06 21:18:50;;;;;;;5.18;2.80;;;;;;;18.43;72.66;101284.22;2090412;28;20087;-73
2023/07/06 21:19:53;;;;;;;5.55;3.10;;;;;;;18.45;72.73;101284.72;2097613;28;20032;-73
2023/07/06 21:20:58;;;;;;;4.68;2.67;;;;;;;18.47;72.62;101285.19;2082834;28;20041;-72
2023/07/06 21:22:00;;;;;;;7.10;2.97;;;;;;;18.51;72.46;101286.19;2079506;28;20104;-71
2023/07/06 21:23:05;;;;;;;5.70;2.60;;;;;;;18.53;72.06;101282.03;2080397;28;20143;-71
2023/07/06 21:24:09;;;;;;;8.55;2.60;;;;;;;18.60;71.78;101287.03;2088664;28;20036;-72
2023/07/06 21:25:13;;;;;;;5.38;2.42;;;;;;;18.63;71.39;101296.47;2085509;28;20124;-72
2023/07/06 21:26:16;;;;;;;5.47;2.72;;;;;;;18.66;71.12;101285.78;2083423;28;20123;-72
2023/07/06 21:27:20;;;;;;;6.63;2.50;;;;;;;18.70;71.07;101283.22;2098867;28;20138;-72
2023/07/06 21:28:22;;;;;;;6.80;2.28;;;;;;;18.71;70.97;101285.63;2083754;28;20033;-72
2023/07/06 21:29:27;;;;;;;7.22;2.70;;;;;;;18.71;70.84;101296.50;2066557;28;20799;-72
2023/07/06 21:30:29;;;;;;;5.00;2.67;;;;;;;18.68;70.80;101291.69;2080511;28;20788;-72
2023/07/06 21:31:31;;;;;;;9.18;2.58;;;;;;;18.65;71.09;101292.31;2089924;28;20092;-73
2023/07/06 21:32:34;;;;;;;4.95;2.33;;;;;;;18.61;71.26;101299.53;2075040;28;20154;-73
2023/07/06 21:33:43;;;;;;;10.98;2.63;;;;;;;18.56;71.30;101309.75;2083993;28;20041;-72
2023/07/06 21:34:44;;;;;;;8.73;2.80;;;;;;;18.52;71.62;101296.75;2075460;28;20092;-73
2023/07/06 21:35:46;;;;;;;6.18;2.70;;;;;;;18.51;71.81;101303.34;2071733;28;21009;-73
2023/07/06 21:36:48;;;;;;;6.97;2.80;;;;;;;18.52;71.86;101294.03;2085109;28;20044;-72
2023/07/06 21:37:52;;;;;;;6.70;2.55;;;;;;;18.55;71.86;101300.78;2083763;28;20063;-72
2023/07/06 21:38:55;;;;;;;7.80;2.85;;;;;;;18.58;71.62;101293.91;2084047;28;20045;-71
2023/07/06 21:39:56;;;;;;;4.85;2.53;;;;;;;18.62;71.31;101308.50;2068166;28;20839;-70
2023/07/06 21:40:59;;;;;;;5.97;2.65;;;;;;;18.61;71.31;101313.16;2085466;28;21006;-71
2023/07/06 21:42:01;;;;;;;4.95;2.58;;;;;;;18.62;71.26;101314.75;2079331;28;20081;-70
2023/07/06 21:43:03;;;;;;;5.95;3.22;;;;;;;18.63;71.19;101305.47;1168569;28;10001334;-71
2023/07/06 21:44:05;;;;;;;6.38;3.13;;;;;;;18.61;71.05;101312.34;2078247;28;20042;-71
2023/07/06 21:45:09;;;;;;;4.72;2.88;;;;;;;18.59;70.96;101307.19;2078202;28;20041;-71
2023/07/06 21:46:13;;;;;;;7.35;3.03;;;;;;;18.56;71.08;101310.56;2084683;28;20046;-71
2023/07/06 21:47:18;;;;;;;6.30;2.90;;;;;;;18.58;71.01;101311.06;2084094;28;20836;-70
2023/07/06 21:48:23;;;;;;;4.22;2.85;;;;;;;18.56;71.02;101310.56;2078681;28;20053;-71
2023/07/06 21:49:27;;;;;;;5.07;3.10;;;;;;;18.53;71.16;101311.97;2072065;28;20841;-71
2023/07/06 21:50:32;;;;;;;4.57;2.83;;;;;;;18.51;71.21;101303.34;2087315;28;20048;-71
2023/07/06 21:51:34;;;;;;;8.02;3.20;;;;;;;18.53;71.16;101316.63;2085039;28;20120;-70
2023/07/06 21:52:35;;;;;;;5.30;2.80;;;;;;;18.51;71.41;101314.22;2086480;28;21574;-70
2023/07/06 21:53:38;;;;;;;7.82;2.70;;;;;;;18.45;71.01;101311.97;2078810;28;20115;-70
2023/07/06 21:54:41;;;;;;;6.28;2.40;;;;;;;18.41;71.12;101317.22;2080738;28;20119;-71
2023/07/06 21:55:44;;;;;;;5.43;3.15;;;;;;;18.40;71.37;101306.63;2092438;28;20040;-71
2023/07/06 21:56:46;;;;;;;4.38;2.80;;;;;;;18.41;71.73;101309.06;2075668;28;21311;-72
2023/07/06 21:57:48;;;;;;;8.27;2.90;;;;;;;18.39;71.70;101307.75;2079142;28;20035;-72
2023/07/06 21:58:51;;;;;;;5.55;3.15;;;;;;;18.36;71.55;101300.22;2075534;28;20041;-72
2023/07/06 21:59:57;;;;;;;5.00;2.72;;;;;;;18.35;71.75;101314.94;2072581;28;20041;-72
2023/07/06 22:00:58;;;;;;;6.47;2.97;;;;;;;18.34;71.92;101307.88;2068139;28;20185;-72
2023/07/06 22:01:59;;;;;;;9.10;3.00;;;;;;;18.32;71.88;101310.13;2076364;28;20093;-72
2023/07/06 22:03:04;;;;;;;4.85;2.90;;;;;;;18.30;71.87;101315.88;2087521;28;21473;-72
2023/07/06 22:04:09;;;;;;;5.53;3.08;;;;;;;18.33;71.74;101312.53;2094329;28;20040;-72
2023/07/06 22:05:11;;;;;;;6.03;3.30;;;;;;;18.35;71.77;101306.75;2084572;28;20911;-72
2023/07/06 22:06:16;;;;;;;7.57;3.88;;;;;;;18.36;71.75;101306.47;2077656;28;20037;-72
2023/07/06 22:07:21;;;;;;;3.97;2.75;;;;;;;18.39;71.58;101314.00;2087504;28;20240;-72
2023/07/06 22:08:23;;;;;;;6.35;3.47;;;;;;;18.42;71.50;101315.31;2079467;28;20033;-72
2023/07/06 22:09:24;;;;;;;4.97;2.95;;;;;;;18.40;71.55;101317.53;2070742;28;20038;-71
2023/07/06 22:10:26;;;;;;;5.63;2.90;;;;;;;18.38;71.61;101319.75;2065575;28;20133;-72
2023/07/06 22:11:28;;;;;;;10.20;3.80;;;;;;;18.38;71.51;101314.31;2063318;28;20046;-72
2023/07/06 22:12:33;;;;;;;7.53;3.55;;;;;;;18.40;71.33;101312.09;2079312;28;20108;-73
2023/07/06 22:13:41;;;;;;;7.15;3.40;;;;;;;18.37;71.36;101308.06;2081716;28;20042;-72
2023/07/06 22:14:48;;;;;;;5.57;3.10;;;;;;;18.35;71.36;101315.75;2078795;28;21118;-73
2023/07/06 22:15:54;;;;;;;7.28;3.33;;;;;;;18.32;71.30;101329.19;2080009;28;20133;-73
2023/07/06 22:16:55;;;;;;;5.65;3.30;;;;;;;18.29;71.45;101317.81;2086864;28;21427;-73
2023/07/06 22:17:57;;;;;;;7.15;3.45;;;;;;;18.27;71.51;101317.28;2091462;28;21129;-73
2023/07/06 22:18:59;;;;;;;7.40;3.20;;;;;;;18.26;71.52;101318.41;2079700;28;20045;-73
2023/07/06 22:20:06;;;;;;;6.72;3.40;;;;;;;18.26;71.64;101332.03;2076182;28;20041;-71
2023/07/06 22:21:10;;;;;;;6.93;3.45;;;;;;;18.24;71.59;101320.66;2078483;28;20090;-71
2023/07/06 22:22:12;;;;;;;8.20;3.55;;;;;;;18.18;71.72;101321.09;2070855;28;20038;-71
2023/07/06 22:23:14;;;;;;;5.97;3.20;;;;;;;18.14;71.73;101314.66;2070323;28;20035;-71
2023/07/06 22:24:17;;;;;;;5.55;3.30;;;;;;;18.08;71.96;101316.72;2069481;28;20039;-71
2023/07/06 22:25:20;;;;;;;5.30;3.30;;;;;;;18.07;72.05;101317.84;2071003;28;20169;-71
2023/07/06 22:26:23;;;;;;;6.38;3.15;;;;;;;18.06;71.98;101319.75;2078588;28;20105;-70
2023/07/06 22:27:27;;;;;;;9.02;4.20;;;;;;;18.12;72.24;101325.06;2075586;28;20033;-71
2023/07/06 22:28:31;;;;;;;7.22;3.53;;;;;;;18.12;72.18;101319.59;2069420;28;20038;-71
2023/07/06 22:29:36;;;;;;;5.97;3.10;;;;;;;18.08;71.83;101324.88;2063295;28;21092;-71
2023/07/06 22:30:40;;;;;;;6.53;3.58;;;;;;;18.02;71.96;101326.13;2065901;28;20173;-71
2023/07/06 22:31:42;;;;;;;9.23;3.35;;;;;;;17.97;72.13;101320.78;2054774;28;20095;-71
2023/07/06 22:32:46;;;;;;;6.63;3.35;;;;;;;17.91;72.04;101332.94;2053797;28;20126;-71
2023/07/06 22:33:47;;;;;;;6.07;3.33;;;;;;;17.91;72.29;101322.03;2070571;28;20038;-72
2023/07/06 22:34:48;;;;;;;6.18;3.67;;;;;;;17.95;72.46;101332.00;2078399;28;20038;-72
2023/07/06 22:35:51;;;;;;;6.80;3.15;;;;;;;17.96;72.43;101325.44;2077187;28;20080;-72
2023/07/06 22:36:55;;;;;;;7.07;3.40;;;;;;;17.98;72.46;101325.13;2071002;28;20050;-72
2023/07/06 22:37:58;;;;;;;8.13;3.50;;;;;;;18.00;72.49;101323.72;2071037;28;20197;-72
2023/07/06 22:39:09;;;;;;;5.25;3.55;;;;;;;17.97;72.37;101337.09;2066332;28;20038;-72
2023/07/06 22:40:12;;;;;;;5.38;3.15;;;;;;;17.99;72.42;101329.44;2080550;28;20045;-72
2023/07/06 22:41:15;;;;;;;5.90;3.35;;;;;;;18.03;72.36;101325.81;2074907;28;20050;-72
2023/07/06 22:42:16;;;;;;;5.85;3.50;;;;;;;18.05;72.18;101329.00;2078989;28;20038;-72
2023/07/06 22:43:17;;;;;;;5.53;3.33;;;;;;;18.06;72.12;101336.09;2090313;28;20898;-72
2023/07/06 22:44:22;;;;;;;8.38;3.65;;;;;;;18.01;72.00;101332.69;2071600;28;20157;-72
2023/07/06 22:45:25;;;;;;;6.05;3.30;;;;;;;17.95;72.01;101328.47;2070831;28;20293;-71
2023/07/06 22:46:31;;;;;;;5.55;3.40;;;;;;;17.97;72.15;101331.66;2089466;28;20159;-72
2023/07/06 22:47:33;;;;;;;6.53;3.25;;;;;;;17.96;72.33;101330.88;2092365;28;20045;-71
2023/07/06 22:48:39;;;;;;;6.00;3.55;;;;;;;17.96;72.41;101335.50;2081840;28;20198;-72
2023/07/06 22:49:45;;;;;;;5.80;3.20;;;;;;;17.96;72.62;101340.94;2081608;28;20030;-73
2023/07/06 22:50:52;;;;;;;6.88;3.15;;;;;;;17.90;72.38;101345.69;2076212;28;20051;-70
2023/07/06 22:51:55;;;;;;;8.00;3.65;;;;;;;17.81;72.36;101336.66;2076294;28;20030;-72
2023/07/06 22:53:01;;;;;;;5.53;3.00;;;;;;;17.79;72.41;101361.47;2080796;28;20040;-72
2023/07/06 22:54:03;;;;;;;5.95;3.20;;;;;;;17.77;72.75;101339.22;2078968;28;20049;-72
2023/07/06 22:55:08;;;;;;;6.60;3.42;;;;;;;17.77;72.52;101343.84;2072489;28;20089;-73
2023/07/06 22:56:12;;;;;;;7.75;2.78;;;;;;;17.76;72.76;101332.13;2079511;28;20038;-70